sensor_id;sensor_type;location;lat;lon;timestamp;pressure;altitude;pressure_sealevel;temperature;humidity
66945;BME280;53853;51.982;5.928;2023-08-06T00:01:59;100362.69;;;17.22;78.83
66945;BME280;53853;51.982;5.928;2023-08-06T00:04:29;100361.03;;;17.20;79.10
66945;BME280;53853;51.982;5.928;2023-08-06T00:06:59;100361.88;;;17.21;79.09
66945;BME280;53853;51.982;5.928;2023-08-06T00:09:32;100360.81;;;17.22;79.27
66945;BME280;53853;51.982;5.928;2023-08-06T00:12:02;100360.81;;;17.22;79.18
66945;BME280;53853;51.982;5.928;2023-08-06T00:14:32;100351.91;;;17.22;79.48
66945;BME280;53853;51.982;5.928;2023-08-06T00:17:03;100348.41;;;17.21;79.29
66945;BME280;53853;51.982;5.928;2023-08-06T00:19:32;100357.31;;;17.22;79.35
66945;BME280;53853;51.982;5.928;2023-08-06T00:22:03;100356.25;;;17.16;79.08
66945;BME280;53853;51.982;5.928;2023-08-06T00:24:35;100351.91;;;17.15;79.53
66945;BME280;53853;51.982;5.928;2023-08-06T00:27:06;100345.88;;;17.13;79.69
66945;BME280;53853;51.982;5.928;2023-08-06T00:29:36;100349.84;;;17.10;79.42
66945;BME280;53853;51.982;5.928;2023-08-06T00:32:06;100347.34;;;17.09;79.98
66945;BME280;53853;51.982;5.928;2023-08-06T00:34:36;100349.44;;;17.07;80.10
66945;BME280;53853;51.982;5.928;2023-08-06T00:37:06;100344.44;;;17.04;80.24
66945;BME280;53853;51.982;5.928;2023-08-06T00:39:39;100345.47;;;17.02;80.30
66945;BME280;53853;51.982;5.928;2023-08-06T00:42:09;100348.56;;;16.99;80.40
66945;BME280;53853;51.982;5.928;2023-08-06T00:44:39;100349.78;;;16.97;80.48
66945;BME280;53853;51.982;5.928;2023-08-06T00:47:09;100344.81;;;16.94;80.69
66945;BME280;53853;51.982;5.928;2023-08-06T00:49:39;100337.78;;;16.93;81.08
66945;BME280;53853;51.982;5.928;2023-08-06T00:52:09;100340.69;;;16.91;81.31
66945;BME280;53853;51.982;5.928;2023-08-06T00:54:42;100345.06;;;16.92;81.30
66945;BME280;53853;51.982;5.928;2023-08-06T00:57:13;100346.06;;;16.91;81.36
66945;BME280;53853;51.982;5.928;2023-08-06T00:59:43;100354.94;;;16.85;81.17
66945;BME280;53853;51.982;5.928;2023-08-06T01:02:13;100353.84;;;16.73;81.31
66945;BME280;53853;51.982;5.928;2023-08-06T01:04:43;100353.63;;;16.61;82.18
66945;BME280;53853;51.982;5.928;2023-08-06T01:07:21;100358.72;;;16.49;82.59
66945;BME280;53853;51.982;5.928;2023-08-06T01:10:01;100357.50;;;16.45;83.04
66945;BME280;53853;51.982;5.928;2023-08-06T01:12:41;100353.53;;;16.41;82.91
66945;BME280;53853;51.982;5.928;2023-08-06T01:15:17;100358.06;;;16.34;83.50
66945;BME280;53853;51.982;5.928;2023-08-06T01:17:49;100358.66;;;16.29;84.29
66945;BME280;53853;51.982;5.928;2023-08-06T01:20:19;100343.13;;;16.24;84.26
66945;BME280;53853;51.982;5.928;2023-08-06T01:22:52;100344.97;;;16.24;84.87
66945;BME280;53853;51.982;5.928;2023-08-06T01:25:28;100339.97;;;16.21;84.94
66945;BME280;53853;51.982;5.928;2023-08-06T01:28:04;100344.13;;;16.23;85.06
66945;BME280;53853;51.982;5.928;2023-08-06T01:30:41;100336.09;;;16.30;85.43
66945;BME280;53853;51.982;5.928;2023-08-06T01:33:16;100339.25;;;16.34;85.18
66945;BME280;53853;51.982;5.928;2023-08-06T01:35:50;100337.16;;;16.36;84.90
66945;BME280;53853;51.982;5.928;2023-08-06T01:38:23;100335.09;;;16.38;84.80
66945;BME280;53853;51.982;5.928;2023-08-06T01:40:55;100345.47;;;16.41;84.53
66945;BME280;53853;51.982;5.928;2023-08-06T01:43:25;100338.88;;;16.43;84.83
66945;BME280;53853;51.982;5.928;2023-08-06T01:45:55;100333.47;;;16.43;84.51
66945;BME280;53853;51.982;5.928;2023-08-06T01:48:25;100335.97;;;16.45;84.68
66945;BME280;53853;51.982;5.928;2023-08-06T01:50:55;100331.41;;;16.45;84.24
66945;BME280;53853;51.982;5.928;2023-08-06T01:53:28;100334.09;;;16.45;84.12
66945;BME280;53853;51.982;5.928;2023-08-06T01:55:58;100338.66;;;16.45;84.39
66945;BME280;53853;51.982;5.928;2023-08-06T01:58:28;100329.75;;;16.44;85.04
66945;BME280;53853;51.982;5.928;2023-08-06T02:00:58;100332.63;;;16.43;84.97
66945;BME280;53853;51.982;5.928;2023-08-06T02:03:28;100338.00;;;16.43;85.14
66945;BME280;53853;51.982;5.928;2023-08-06T02:05:58;100335.13;;;16.44;85.60
66945;BME280;53853;51.982;5.928;2023-08-06T02:08:31;100336.59;;;16.47;85.24
66945;BME280;53853;51.982;5.928;2023-08-06T02:11:01;100334.53;;;16.49;85.49
66945;BME280;53853;51.982;5.928;2023-08-06T02:13:31;100336.19;;;16.50;85.55
66945;BME280;53853;51.982;5.928;2023-08-06T02:16:02;100326.44;;;16.49;85.52
66945;BME280;53853;51.982;5.928;2023-08-06T02:18:31;100333.50;;;16.50;85.56
66945;BME280;53853;51.982;5.928;2023-08-06T02:21:01;100326.25;;;16.51;85.29
66945;BME280;53853;51.982;5.928;2023-08-06T02:23:34;100321.72;;;16.51;85.07
66945;BME280;53853;51.982;5.928;2023-08-06T02:26:05;100317.97;;;16.52;84.69
66945;BME280;53853;51.982;5.928;2023-08-06T02:28:35;100316.16;;;16.53;84.86
66945;BME280;53853;51.982;5.928;2023-08-06T02:31:05;100320.47;;;16.54;84.76
66945;BME280;53853;51.982;5.928;2023-08-06T02:33:37;100305.38;;;16.53;84.94
66945;BME280;53853;51.982;5.928;2023-08-06T02:36:07;100307.88;;;16.54;85.03
66945;BME280;53853;51.982;5.928;2023-08-06T02:38:40;100300.81;;;16.53;85.13
66945;BME280;53853;51.982;5.928;2023-08-06T02:41:10;100306.19;;;16.53;84.96
66945;BME280;53853;51.982;5.928;2023-08-06T02:43:40;100304.34;;;16.54;84.75
66945;BME280;53853;51.982;5.928;2023-08-06T02:46:10;100306.00;;;16.55;84.71
66945;BME280;53853;51.982;5.928;2023-08-06T02:48:40;100304.13;;;16.55;84.65
66945;BME280;53853;51.982;5.928;2023-08-06T02:51:10;100302.50;;;16.54;84.90
66945;BME280;53853;51.982;5.928;2023-08-06T02:53:42;100289.88;;;16.55;85.10
66945;BME280;53853;51.982;5.928;2023-08-06T02:56:15;100295.84;;;16.57;85.48
66945;BME280;53853;51.982;5.928;2023-08-06T02:59:03;100295.66;;;16.58;85.42
66945;BME280;53853;51.982;5.928;2023-08-06T03:01:53;100294.00;;;16.57;85.49
66945;BME280;53853;51.982;5.928;2023-08-06T03:04:31;100295.84;;;16.57;85.32
66945;BME280;53853;51.982;5.928;2023-08-06T03:07:01;100302.06;;;16.57;85.16
66945;BME280;53853;51.982;5.928;2023-08-06T03:09:42;100294.00;;;16.57;85.24
66945;BME280;53853;51.982;5.928;2023-08-06T03:12:12;100295.66;;;16.58;84.92
66945;BME280;53853;51.982;5.928;2023-08-06T03:14:42;100294.00;;;16.57;85.06
66945;BME280;53853;51.982;5.928;2023-08-06T03:17:12;100286.78;;;16.58;85.05
66945;BME280;53853;51.982;5.928;2023-08-06T03:19:43;100289.47;;;16.58;85.25
66945;BME280;53853;51.982;5.928;2023-08-06T03:22:13;100290.47;;;16.57;85.12
66945;BME280;53853;51.982;5.928;2023-08-06T03:24:49;100286.97;;;16.56;85.35
66945;BME280;53853;51.982;5.928;2023-08-06T03:27:21;100284.06;;;16.58;85.78
66945;BME280;53853;51.982;5.928;2023-08-06T03:29:52;100287.38;;;16.60;85.64
66945;BME280;53853;51.982;5.928;2023-08-06T03:32:24;100287.59;;;16.58;85.75
66945;BME280;53853;51.982;5.928;2023-08-06T03:34:55;100284.69;;;16.60;85.93
66945;BME280;53853;51.982;5.928;2023-08-06T03:37:29;100286.38;;;16.61;86.00
66945;BME280;53853;51.982;5.928;2023-08-06T03:40:02;100285.50;;;16.60;86.17
66945;BME280;53853;51.982;5.928;2023-08-06T03:42:34;100282.63;;;16.62;86.04
66945;BME280;53853;51.982;5.928;2023-08-06T03:45:06;100278.09;;;16.62;85.73
66945;BME280;53853;51.982;5.928;2023-08-06T03:47:37;100279.72;;;16.63;85.78
66945;BME280;53853;51.982;5.928;2023-08-06T03:50:08;100281.41;;;16.64;85.80
66945;BME280;53853;51.982;5.928;2023-08-06T03:52:39;100283.88;;;16.66;85.50
66945;BME280;53853;51.982;5.928;2023-08-06T03:55:12;100284.69;;;16.66;85.60
66945;BME280;53853;51.982;5.928;2023-08-06T03:57:42;100291.13;;;16.65;85.68
66945;BME280;53853;51.982;5.928;2023-08-06T04:00:12;100283.88;;;16.66;85.62
66945;BME280;53853;51.982;5.928;2023-08-06T04:02:42;100284.69;;;16.66;85.62
66945;BME280;53853;51.982;5.928;2023-08-06T04:05:14;100284.69;;;16.66;85.56
66945;BME280;53853;51.982;5.928;2023-08-06T04:07:44;100282.66;;;16.69;85.69
66945;BME280;53853;51.982;5.928;2023-08-06T04:10:17;100288.25;;;16.67;85.47
66945;BME280;53853;51.982;5.928;2023-08-06T04:12:47;100284.69;;;16.66;85.89
66945;BME280;53853;51.982;5.928;2023-08-06T04:15:17;100287.19;;;16.68;85.54
66945;BME280;53853;51.982;5.928;2023-08-06T04:17:47;100293.41;;;16.69;85.59
66945;BME280;53853;51.982;5.928;2023-08-06T04:20:17;100291.56;;;16.69;85.66
66945;BME280;53853;51.982;5.928;2023-08-06T04:22:47;100293.22;;;16.70;85.58
66945;BME280;53853;51.982;5.928;2023-08-06T04:25:19;100291.34;;;16.71;85.63
66945;BME280;53853;51.982;5.928;2023-08-06T04:27:51;100293.00;;;16.72;85.91
66945;BME280;53853;51.982;5.928;2023-08-06T04:30:21;100293.84;;;16.72;85.54
66945;BME280;53853;51.982;5.928;2023-08-06T04:32:51;100291.97;;;16.73;85.60
66945;BME280;53853;51.982;5.928;2023-08-06T04:35:22;100294.66;;;16.73;85.54
66945;BME280;53853;51.982;5.928;2023-08-06T04:37:52;100295.28;;;16.75;85.71
66945;BME280;53853;51.982;5.928;2023-08-06T04:40:25;100291.75;;;16.74;85.56
66945;BME280;53853;51.982;5.928;2023-08-06T04:42:55;100295.28;;;16.75;85.72
66945;BME280;53853;51.982;5.928;2023-08-06T04:45:25;100292.59;;;16.75;85.47
66945;BME280;53853;51.982;5.928;2023-08-06T04:47:55;100299.00;;;16.74;85.56
66945;BME280;53853;51.982;5.928;2023-08-06T04:50:25;100299.63;;;16.76;85.64
66945;BME280;53853;51.982;5.928;2023-08-06T04:52:55;100301.09;;;16.78;85.71
66945;BME280;53853;51.982;5.928;2023-08-06T04:55:28;100302.53;;;16.81;85.73
66945;BME280;53853;51.982;5.928;2023-08-06T04:57:58;100298.81;;;16.82;85.89
66945;BME280;53853;51.982;5.928;2023-08-06T05:00:28;100298.41;;;16.85;85.70
66945;BME280;53853;51.982;5.928;2023-08-06T05:02:59;100312.50;;;16.87;85.51
66945;BME280;53853;51.982;5.928;2023-08-06T05:05:29;100310.47;;;16.89;85.90
66945;BME280;53853;51.982;5.928;2023-08-06T05:07:59;100298.44;;;16.92;85.66
66945;BME280;53853;51.982;5.928;2023-08-06T05:10:31;100303.41;;;16.95;85.71
66945;BME280;53853;51.982;5.928;2023-08-06T05:13:01;100308.59;;;16.96;85.80
66945;BME280;53853;51.982;5.928;2023-08-06T05:15:31;100309.22;;;16.98;85.68
66945;BME280;53853;51.982;5.928;2023-08-06T05:18:01;100310.88;;;16.99;85.63
66945;BME280;53853;51.982;5.928;2023-08-06T05:20:31;100312.97;;;17.04;85.75
66945;BME280;53853;51.982;5.928;2023-08-06T05:23:05;100320.22;;;17.10;85.85
66945;BME280;53853;51.982;5.928;2023-08-06T05:25:38;100314.22;;;17.15;85.94
66945;BME280;53853;51.982;5.928;2023-08-06T05:28:07;100322.50;;;17.20;85.65
66945;BME280;53853;51.982;5.928;2023-08-06T05:30:40;100322.91;;;17.24;85.89
66945;BME280;53853;51.982;5.928;2023-08-06T05:33:10;100321.28;;;17.29;85.95
66945;BME280;53853;51.982;5.928;2023-08-06T05:35:41;100323.56;;;17.32;85.87
66945;BME280;53853;51.982;5.928;2023-08-06T05:38:11;100333.91;;;17.35;85.57
66945;BME280;53853;51.982;5.928;2023-08-06T05:40:43;100335.34;;;17.38;85.82
66945;BME280;53853;51.982;5.928;2023-08-06T05:43:14;100339.50;;;17.41;85.61
66945;BME280;53853;51.982;5.928;2023-08-06T05:45:45;100343.66;;;17.43;85.83
66945;BME280;53853;51.982;5.928;2023-08-06T05:48:15;100345.09;;;17.46;85.71
66945;BME280;53853;51.982;5.928;2023-08-06T05:50:45;100349.44;;;17.47;85.59
66945;BME280;53853;51.982;5.928;2023-08-06T05:53:15;100351.13;;;17.48;85.46
66945;BME280;53853;51.982;5.928;2023-08-06T05:55:48;100350.47;;;17.52;85.35
66945;BME280;53853;51.982;5.928;2023-08-06T05:58:18;100353.16;;;17.52;85.56
66945;BME280;53853;51.982;5.928;2023-08-06T06:00:48;100345.94;;;17.53;85.24
66945;BME280;53853;51.982;5.928;2023-08-06T06:03:18;100355.03;;;17.52;85.14
66945;BME280;53853;51.982;5.928;2023-08-06T06:05:48;100356.91;;;17.51;85.26
66945;BME280;53853;51.982;5.928;2023-08-06T06:08:18;100356.91;;;17.51;84.96
66945;BME280;53853;51.982;5.928;2023-08-06T06:10:51;100355.84;;;17.52;85.03
66945;BME280;53853;51.982;5.928;2023-08-06T06:13:20;100362.72;;;17.55;85.07
66945;BME280;53853;51.982;5.928;2023-08-06T06:15:53;100366.44;;;17.54;84.68
66945;BME280;53853;51.982;5.928;2023-08-06T06:18:23;100374.09;;;17.57;85.05
66945;BME280;53853;51.982;5.928;2023-08-06T06:20:53;100368.28;;;17.60;84.93
66945;BME280;53853;51.982;5.928;2023-08-06T06:23:23;100378.03;;;17.61;84.84
66945;BME280;53853;51.982;5.928;2023-08-06T06:25:56;100375.16;;;17.63;84.42
66945;BME280;53853;51.982;5.928;2023-08-06T06:28:26;100372.44;;;17.63;84.50
66945;BME280;53853;51.982;5.928;2023-08-06T06:31:00;100377.63;;;17.64;84.63
66945;BME280;53853;51.982;5.928;2023-08-06T06:33:31;100385.09;;;17.62;84.19
66945;BME280;53853;51.982;5.928;2023-08-06T06:36:01;100392.13;;;17.63;84.30
66945;BME280;53853;51.982;5.928;2023-08-06T06:38:34;100394.63;;;17.65;84.40
66945;BME280;53853;51.982;5.928;2023-08-06T06:41:07;100394.22;;;17.61;84.01
66945;BME280;53853;51.982;5.928;2023-08-06T06:43:37;100402.28;;;17.61;84.30
66945;BME280;53853;51.982;5.928;2023-08-06T06:46:07;100403.97;;;17.62;84.62
66945;BME280;53853;51.982;5.928;2023-08-06T06:48:37;100406.66;;;17.62;84.62
66945;BME280;53853;51.982;5.928;2023-08-06T06:51:07;100399.59;;;17.61;84.13
66945;BME280;53853;51.982;5.928;2023-08-06T06:53:37;100400.00;;;17.58;83.87
66945;BME280;53853;51.982;5.928;2023-08-06T06:56:10;100400.84;;;17.59;84.35
66945;BME280;53853;51.982;5.928;2023-08-06T06:58:40;100407.28;;;17.58;84.06
66945;BME280;53853;51.982;5.928;2023-08-06T07:01:10;100405.41;;;17.58;83.93
66945;BME280;53853;51.982;5.928;2023-08-06T07:03:40;100408.72;;;17.60;84.08
66945;BME280;53853;51.982;5.928;2023-08-06T07:06:10;100414.09;;;17.60;83.85
66945;BME280;53853;51.982;5.928;2023-08-06T07:08:42;100408.91;;;17.59;83.72
66945;BME280;53853;51.982;5.928;2023-08-06T07:11:15;100413.28;;;17.60;83.79
66945;BME280;53853;51.982;5.928;2023-08-06T07:13:44;100409.13;;;17.57;84.06
66945;BME280;53853;51.982;5.928;2023-08-06T07:16:15;100411.19;;;17.55;83.99
66945;BME280;53853;51.982;5.928;2023-08-06T07:18:45;100414.09;;;17.53;84.01
66945;BME280;53853;51.982;5.928;2023-08-06T07:21:14;100416.78;;;17.47;83.77
66945;BME280;53853;51.982;5.928;2023-08-06T07:23:45;100421.97;;;17.42;84.04
66945;BME280;53853;51.982;5.928;2023-08-06T07:26:19;100427.78;;;17.38;84.28
66945;BME280;53853;51.982;5.928;2023-08-06T07:28:49;100423.81;;;17.34;84.40
66945;BME280;53853;51.982;5.928;2023-08-06T07:31:19;100424.22;;;17.31;84.76
66945;BME280;53853;51.982;5.928;2023-08-06T07:33:49;100429.81;;;17.30;84.97
66945;BME280;53853;51.982;5.928;2023-08-06T07:36:19;100427.53;;;17.33;85.43
66945;BME280;53853;51.982;5.928;2023-08-06T07:38:49;100430.47;;;17.38;85.56
66945;BME280;53853;51.982;5.928;2023-08-06T07:41:25;100433.56;;;17.42;85.91
66945;BME280;53853;51.982;5.928;2023-08-06T07:43:55;100434.41;;;17.43;86.26
66945;BME280;53853;51.982;5.928;2023-08-06T07:46:25;100434.41;;;17.43;86.65
66945;BME280;53853;51.982;5.928;2023-08-06T07:48:54;100437.72;;;17.45;87.11
66945;BME280;53853;51.982;5.928;2023-08-06T07:51:24;100429.00;;;17.49;87.69
66945;BME280;53853;51.982;5.928;2023-08-06T07:53:54;100432.16;;;17.53;87.98
66945;BME280;53853;51.982;5.928;2023-08-06T07:56:27;100432.75;;;17.55;88.12
66945;BME280;53853;51.982;5.928;2023-08-06T07:58:57;100431.28;;;17.52;88.03
66945;BME280;53853;51.982;5.928;2023-08-06T08:01:27;100431.09;;;17.54;88.75
66945;BME280;53853;51.982;5.928;2023-08-06T08:03:56;100427.97;;;17.57;88.86
66945;BME280;53853;51.982;5.928;2023-08-06T08:06:27;100431.94;;;17.61;89.30
66945;BME280;53853;51.982;5.928;2023-08-06T08:08:56;100435.69;;;17.67;89.65
66945;BME280;53853;51.982;5.928;2023-08-06T08:11:29;100426.34;;;17.69;89.53
66945;BME280;53853;51.982;5.928;2023-08-06T08:13:59;100432.34;;;17.71;89.49
66945;BME280;53853;51.982;5.928;2023-08-06T08:16:29;100430.69;;;17.77;90.00
66945;BME280;53853;51.982;5.928;2023-08-06T08:18:59;100432.16;;;17.80;90.07
66945;BME280;53853;51.982;5.928;2023-08-06T08:21:30;100439.19;;;17.81;90.30
66945;BME280;53853;51.982;5.928;2023-08-06T08:24:01;100443.56;;;17.82;90.03
66945;BME280;53853;51.982;5.928;2023-08-06T08:26:33;100445.63;;;17.80;89.71
66945;BME280;53853;51.982;5.928;2023-08-06T08:29:03;100434.00;;;17.79;89.84
66945;BME280;53853;51.982;5.928;2023-08-06T08:31:33;100438.16;;;17.82;90.31
66945;BME280;53853;51.982;5.928;2023-08-06T08:34:06;100436.50;;;17.87;90.51
66945;BME280;53853;51.982;5.928;2023-08-06T08:36:36;100434.47;;;17.89;90.48
66945;BME280;53853;51.982;5.928;2023-08-06T08:39:06;100441.94;;;17.94;90.25
66945;BME280;53853;51.982;5.928;2023-08-06T08:41:38;100440.69;;;18.03;90.85
66945;BME280;53853;51.982;5.928;2023-08-06T08:44:09;100434.44;;;18.09;90.77
66945;BME280;53853;51.982;5.928;2023-08-06T08:46:41;100437.75;;;18.18;91.69
66945;BME280;53853;51.982;5.928;2023-08-06T08:49:12;100438.97;;;18.29;92.04
66945;BME280;53853;51.982;5.928;2023-08-06T08:51:44;100439.78;;;18.36;91.82
66945;BME280;53853;51.982;5.928;2023-08-06T08:54:16;100443.13;;;18.38;91.10
66945;BME280;53853;51.982;5.928;2023-08-06T08:56:49;100437.72;;;18.38;90.08
66945;BME280;53853;51.982;5.928;2023-08-06T08:59:19;100442.69;;;18.41;89.64
66945;BME280;53853;51.982;5.928;2023-08-06T09:01:49;100439.75;;;18.50;90.48
66945;BME280;53853;51.982;5.928;2023-08-06T09:04:21;100442.00;;;18.59;90.62
66945;BME280;53853;51.982;5.928;2023-08-06T09:06:53;100445.50;;;18.67;90.56
66945;BME280;53853;51.982;5.928;2023-08-06T09:09:28;100445.50;;;18.73;90.07
66945;BME280;53853;51.982;5.928;2023-08-06T09:12:05;100457.28;;;18.86;91.06
66945;BME280;53853;51.982;5.928;2023-08-06T09:14:48;100444.19;;;18.96;91.65
66945;BME280;53853;51.982;5.928;2023-08-06T09:17:19;100448.72;;;19.02;91.44
66945;BME280;53853;51.982;5.928;2023-08-06T09:19:49;100455.97;;;19.08;91.74
66945;BME280;53853;51.982;5.928;2023-08-06T09:22:19;100450.53;;;19.15;91.55
66945;BME280;53853;51.982;5.928;2023-08-06T09:24:50;100460.72;;;19.13;90.83
66945;BME280;53853;51.982;5.928;2023-08-06T09:27:23;100458.47;;;19.10;89.72
66945;BME280;53853;51.982;5.928;2023-08-06T09:29:53;100467.47;;;18.97;87.90
66945;BME280;53853;51.982;5.928;2023-08-06T09:32:23;100463.94;;;18.90;88.56
66945;BME280;53853;51.982;5.928;2023-08-06T09:34:56;100466.47;;;18.78;86.93
66945;BME280;53853;51.982;5.928;2023-08-06T09:37:36;100466.28;;;18.66;86.13
66945;BME280;53853;51.982;5.928;2023-08-06T09:40:25;100469.63;;;18.55;86.08
66945;BME280;53853;51.982;5.928;2023-08-06T09:42:58;100473.59;;;18.45;86.33
66945;BME280;53853;51.982;5.928;2023-08-06T09:45:31;100478.59;;;18.35;85.93
66945;BME280;53853;51.982;5.928;2023-08-06T09:48:03;100470.31;;;18.23;85.75
66945;BME280;53853;51.982;5.928;2023-08-06T09:50:35;100476.13;;;18.14;86.05
66945;BME280;53853;51.982;5.928;2023-08-06T09:53:07;100484.22;;;18.07;86.21
66945;BME280;53853;51.982;5.928;2023-08-06T09:55:37;100482.16;;;18.02;86.72
66945;BME280;53853;51.982;5.928;2023-08-06T09:58:10;100478.22;;;17.98;86.78
66945;BME280;53853;51.982;5.928;2023-08-06T10:00:41;100490.88;;;17.91;86.73
66945;BME280;53853;51.982;5.928;2023-08-06T10:03:15;100481.69;;;17.79;86.35
66945;BME280;53853;51.982;5.928;2023-08-06T10:05:45;100487.09;;;17.65;85.59
66945;BME280;53853;51.982;5.928;2023-08-06T10:08:16;100488.72;;;17.53;86.39
66945;BME280;53853;51.982;5.928;2023-08-06T10:10:46;100492.63;;;17.44;86.78
66945;BME280;53853;51.982;5.928;2023-08-06T10:13:20;100492.59;;;17.30;87.73
66945;BME280;53853;51.982;5.928;2023-08-06T10:15:51;100501.25;;;17.19;88.16
66945;BME280;53853;51.982;5.928;2023-08-06T10:18:22;100502.91;;;17.13;88.89
66945;BME280;53853;51.982;5.928;2023-08-06T10:20:52;100512.81;;;17.06;89.22
66945;BME280;53853;51.982;5.928;2023-08-06T10:23:34;100500.53;;;16.97;89.68
66945;BME280;53853;51.982;5.928;2023-08-06T10:26:05;100508.97;;;16.87;90.29
66945;BME280;53853;51.982;5.928;2023-08-06T10:28:38;100512.25;;;16.82;90.83
66945;BME280;53853;51.982;5.928;2023-08-06T10:31:08;100514.31;;;16.80;91.24
66945;BME280;53853;51.982;5.928;2023-08-06T10:33:42;100515.78;;;16.83;92.11
66945;BME280;53853;51.982;5.928;2023-08-06T10:36:13;100510.03;;;16.86;92.67
66945;BME280;53853;51.982;5.928;2023-08-06T10:38:47;100520.50;;;16.81;91.80
66945;BME280;53853;51.982;5.928;2023-08-06T10:41:22;100522.50;;;16.65;91.43
66945;BME280;53853;51.982;5.928;2023-08-06T10:44:05;100525.50;;;16.49;90.98
66945;BME280;53853;51.982;5.928;2023-08-06T10:46:37;100525.84;;;16.39;90.72
66945;BME280;53853;51.982;5.928;2023-08-06T10:49:08;100537.34;;;16.26;90.47
66945;BME280;53853;51.982;5.928;2023-08-06T10:51:41;100533.31;;;16.16;90.23
66945;BME280;53853;51.982;5.928;2023-08-06T10:54:11;100533.47;;;16.07;90.38
66945;BME280;53853;51.982;5.928;2023-08-06T10:56:41;100529.66;;;16.02;90.80
66945;BME280;53853;51.982;5.928;2023-08-06T10:59:15;100534.59;;;15.98;91.07
66945;BME280;53853;51.982;5.928;2023-08-06T11:01:46;100545.31;;;15.91;90.73
66945;BME280;53853;51.982;5.928;2023-08-06T11:04:16;100538.38;;;15.82;90.71
66945;BME280;53853;51.982;5.928;2023-08-06T11:06:52;100541.81;;;15.76;91.58
66945;BME280;53853;51.982;5.928;2023-08-06T11:09:22;100540.00;;;15.77;91.88
66945;BME280;53853;51.982;5.928;2023-08-06T11:11:53;100541.00;;;15.75;91.97
66945;BME280;53853;51.982;5.928;2023-08-06T11:14:26;100541.19;;;15.74;92.15
66945;BME280;53853;51.982;5.928;2023-08-06T11:16:56;100540.53;;;15.72;92.42
66945;BME280;53853;51.982;5.928;2023-08-06T11:19:26;100543.03;;;15.73;92.64
66945;BME280;53853;51.982;5.928;2023-08-06T11:21:56;100550.25;;;15.73;92.94
66945;BME280;53853;51.982;5.928;2023-08-06T11:24:28;100551.66;;;15.69;92.64
66945;BME280;53853;51.982;5.928;2023-08-06T11:26:58;100548.88;;;15.62;91.95
66945;BME280;53853;51.982;5.928;2023-08-06T11:29:31;100548.63;;;15.57;92.44
66945;BME280;53853;51.982;5.928;2023-08-06T11:32:07;100559.75;;;15.54;92.66
66945;BME280;53853;51.982;5.928;2023-08-06T11:34:39;100567.38;;;15.50;93.07
66945;BME280;53853;51.982;5.928;2023-08-06T11:37:09;100559.69;;;15.47;93.14
66945;BME280;53853;51.982;5.928;2023-08-06T11:39:39;100560.06;;;15.44;93.09
66945;BME280;53853;51.982;5.928;2023-08-06T11:42:14;100558.38;;;15.43;93.50
66945;BME280;53853;51.982;5.928;2023-08-06T11:44:46;100570.81;;;15.44;93.82
66945;BME280;53853;51.982;5.928;2023-08-06T11:47:17;100574.50;;;15.43;94.12
66945;BME280;53853;51.982;5.928;2023-08-06T11:49:48;100580.28;;;15.40;94.20
66945;BME280;53853;51.982;5.928;2023-08-06T11:52:20;100581.28;;;15.39;94.29
66945;BME280;53853;51.982;5.928;2023-08-06T11:55:01;100587.28;;;15.41;94.97
66945;BME280;53853;51.982;5.928;2023-08-06T11:57:33;100581.53;;;15.44;95.28
66945;BME280;53853;51.982;5.928;2023-08-06T12:00:08;100593.13;;;15.45;95.37
66945;BME280;53853;51.982;5.928;2023-08-06T12:02:46;100595.16;;;15.43;94.74
66945;BME280;53853;51.982;5.928;2023-08-06T12:05:17;100595.91;;;15.36;94.99
66945;BME280;53853;51.982;5.928;2023-08-06T12:07:49;100607.50;;;15.37;95.21
66945;BME280;53853;51.982;5.928;2023-08-06T12:10:20;100606.84;;;15.35;94.95
66945;BME280;53853;51.982;5.928;2023-08-06T12:12:50;100611.56;;;15.33;94.86
66945;BME280;53853;51.982;5.928;2023-08-06T12:15:23;100614.81;;;15.28;94.23
66945;BME280;53853;51.982;5.928;2023-08-06T12:17:53;100612.50;;;15.25;94.75
66945;BME280;53853;51.982;5.928;2023-08-06T12:20:23;100601.50;;;15.20;94.76
66945;BME280;53853;51.982;5.928;2023-08-06T12:22:53;100620.84;;;15.15;94.41
66945;BME280;53853;51.982;5.928;2023-08-06T12:25:23;100627.22;;;15.14;94.86
66945;BME280;53853;51.982;5.928;2023-08-06T12:27:53;100621.56;;;15.09;94.59
66945;BME280;53853;51.982;5.928;2023-08-06T12:30:26;100632.31;;;15.09;95.02
66945;BME280;53853;51.982;5.928;2023-08-06T12:32:56;100626.13;;;15.09;95.45
66945;BME280;53853;51.982;5.928;2023-08-06T12:35:26;100633.97;;;15.10;95.59
66945;BME280;53853;51.982;5.928;2023-08-06T12:37:56;100634.44;;;15.14;96.17
66945;BME280;53853;51.982;5.928;2023-08-06T12:40:26;100632.41;;;15.16;96.24
66945;BME280;53853;51.982;5.928;2023-08-06T12:42:56;100627.50;;;15.19;96.28
66945;BME280;53853;51.982;5.928;2023-08-06T12:45:29;100631.47;;;15.24;96.48
66945;BME280;53853;51.982;5.928;2023-08-06T12:47:59;100639.16;;;15.27;96.72
66945;BME280;53853;51.982;5.928;2023-08-06T12:50:29;100637.47;;;15.26;96.35
66945;BME280;53853;51.982;5.928;2023-08-06T12:52:59;100649.06;;;15.26;96.50
66945;BME280;53853;51.982;5.928;2023-08-06T12:55:30;100652.41;;;15.28;96.69
66945;BME280;53853;51.982;5.928;2023-08-06T12:58:00;100657.59;;;15.30;96.87
66945;BME280;53853;51.982;5.928;2023-08-06T13:00:33;100660.91;;;15.32;96.77
66945;BME280;53853;51.982;5.928;2023-08-06T13:03:03;100659.91;;;15.33;96.81
66945;BME280;53853;51.982;5.928;2023-08-06T13:05:33;100663.41;;;15.33;96.92
66945;BME280;53853;51.982;5.928;2023-08-06T13:08:04;100656.84;;;15.36;97.10
66945;BME280;53853;51.982;5.928;2023-08-06T13:10:34;100657.84;;;15.35;97.11
66945;BME280;53853;51.982;5.928;2023-08-06T13:13:04;100664.06;;;15.35;96.97